Time;durP1;ratioP1;P1;durP2;ratioP2;P2;SDS_P1;SDS_P2;PMS_P1;PMS_P2;Temp;Humidity;BMP_temperature;BMP_pressure;BME280_temperature;BME280_humidity;BME280_pressure;Samples;Min_cycle;Max_cycle;Signal;HPM_P1;HPM_P2
2021/10/25 00:00:43;;;;;;;11.40;8.90;;;5.20;74.40;;;;;;5060553;28;20757;-66
2021/10/25 00:03:09;;;;;;;11.98;8.98;;;5.20;74.50;;;;;;5049636;28;20128;-66
2021/10/25 00:05:34;;;;;;;10.98;9.35;;;5.20;74.30;;;;;;5053098;28;20033;-67
2021/10/25 00:08:00;;;;;;;10.70;8.73;;;5.20;74.30;;;;;;5052294;28;20071;-67
2021/10/25 00:10:26;;;;;;;10.35;8.45;;;5.10;74.20;;;;;;5053230;28;20052;-66
2021/10/25 00:12:52;;;;;;;12.07;9.48;;;5.20;74.20;;;;;;5051987;28;20029;-65
2021/10/25 00:15:18;;;;;;;10.60;8.80;;;5.10;74.00;;;;;;5053656;28;20711;-66
2021/10/25 00:17:44;;;;;;;10.77;8.32;;;5.10;73.90;;;;;;5053090;28;20040;-66
2021/10/25 00:20:13;;;;;;;10.25;8.90;;;5.10;74.20;;;;;;5052728;28;20539;-66
2021/10/25 00:22:39;;;;;;;11.40;8.95;;;5.10;74.30;;;;;;5052014;28;20403;-64
2021/10/25 00:25:05;;;;;;;12.82;9.38;;;5.00;74.30;;;;;;5054205;28;20694;-67
2021/10/25 00:27:31;;;;;;;11.55;9.38;;;5.00;74.30;;;;;;5053828;28;20432;-67
2021/10/25 00:29:57;;;;;;;12.40;9.05;;;5.00;74.20;;;;;;5051864;28;20076;-67
2021/10/25 00:32:22;;;;;;;13.45;8.57;;;5.00;74.10;;;;;;5054087;28;20795;-67
2021/10/25 00:34:48;;;;;;;11.32;9.18;;;5.00;74.30;;;;;;5051336;28;20223;-67
2021/10/25 00:37:14;;;;;;;11.70;8.95;;;5.00;74.30;;;;;;5055337;28;20039;-66
2021/10/25 00:39:39;;;;;;;11.50;9.13;;;5.00;74.50;;;;;;5053281;28;20105;-66
2021/10/25 00:42:06;;;;;;;10.40;8.38;;;5.00;74.50;;;;;;5058655;28;20035;-67
2021/10/25 00:44:32;;;;;;;11.77;9.20;;;5.00;74.60;;;;;;5057251;28;20123;-67
2021/10/25 00:46:58;;;;;;;12.88;9.10;;;5.00;74.70;;;;;;5054440;28;20485;-65
2021/10/25 00:49:24;;;;;;;10.50;8.45;;;5.00;74.70;;;;;;5053633;28;20431;-67
2021/10/25 00:51:51;;;;;;;11.05;8.93;;;5.10;74.70;;;;;;5057011;28;20044;-66
2021/10/25 00:54:18;;;;;;;9.80;8.05;;;5.10;74.50;;;;;;5054562;28;20029;-64
2021/10/25 00:56:48;;;;;;;10.57;8.90;;;5.10;74.30;;;;;;5056197;28;20107;-67
2021/10/25 00:59:14;;;;;;;9.98;8.30;;;5.10;74.40;;;;;;5060304;28;20029;-67
2021/10/25 01:01:40;;;;;;;10.05;8.05;;;5.10;74.50;;;;;;5056676;28;20037;-67
2021/10/25 01:04:09;;;;;;;11.23;8.40;;;5.10;74.50;;;;;;5054406;28;20056;-67
2021/10/25 01:06:35;;;;;;;9.23;7.97;;;5.10;74.60;;;;;;5057416;28;20103;-66
2021/10/25 01:09:00;;;;;;;10.52;8.48;;;5.10;74.50;;;;;;5058079;28;20715;-66
2021/10/25 01:11:26;;;;;;;9.02;7.15;;;5.00;74.50;;;;;;5055825;28;20115;-67
2021/10/25 01:13:53;;;;;;;9.13;7.43;;;5.00;74.60;;;;;;5055108;28;20092;-67
2021/10/25 01:16:19;;;;;;;11.50;8.52;;;5.00;74.70;;;;;;5057909;28;20052;-66
2021/10/25 01:18:45;;;;;;;10.63;8.27;;;5.00;74.80;;;;;;5058761;28;20511;-65
2021/10/25 01:21:12;;;;;;;9.20;7.53;;;5.00;74.90;;;;;;5055439;28;20065;-67
2021/10/25 01:23:38;;;;;;;9.48;7.47;;;5.00;74.90;;;;;;5059259;28;20037;-67
2021/10/25 01:26:04;;;;;;;9.13;7.35;;;5.00;75.00;;;;;;5058215;28;20515;-67
2021/10/25 01:28:31;;;;;;;11.27;7.95;;;5.00;75.00;;;;;;5058014;28;20037;-66
2021/10/25 01:30:56;;;;;;;8.90;7.70;;;5.00;75.20;;;;;;5058448;28;20041;-67
2021/10/25 01:33:22;;;;;;;9.02;7.43;;;5.10;75.20;;;;;;5055684;28;20067;-67
2021/10/25 01:35:48;;;;;;;8.80;7.55;;;5.10;75.00;;;;;;5056280;28;20151;-67
2021/10/25 01:38:14;;;;;;;8.68;7.55;;;5.10;74.90;;;;;;5057734;28;20029;-66
2021/10/25 01:40:40;;;;;;;9.80;7.80;;;5.10;74.80;;;;;;5058695;28;20036;-66
2021/10/25 01:43:06;;;;;;;9.50;7.60;;;5.10;74.80;;;;;;5055685;28;20029;-67
2021/10/25 01:45:33;;;;;;;9.50;7.45;;;5.10;74.80;;;;;;5055987;28;20500;-66
2021/10/25 01:47:59;;;;;;;8.52;7.53;;;5.10;74.80;;;;;;5057091;28;20036;-66
2021/10/25 01:50:25;;;;;;;10.07;7.80;;;5.10;74.80;;;;;;5055037;28;20079;-66
2021/10/25 01:52:51;;;;;;;10.77;8.10;;;5.10;74.80;;;;;;5056149;28;20040;-67
2021/10/25 01:55:18;;;;;;;9.38;7.55;;;5.10;74.80;;;;;;5056092;28;20037;-67
2021/10/25 01:57:44;;;;;;;9.80;8.13;;;5.10;74.90;;;;;;5052617;28;20182;-67
2021/10/25 02:00:10;;;;;;;11.00;8.20;;;5.10;74.90;;;;;;5056025;28;20051;-67
2021/10/25 02:02:35;;;;;;;9.57;7.93;;;5.20;74.80;;;;;;5055080;28;20033;-66
2021/10/25 02:05:02;;;;;;;10.38;7.88;;;5.20;74.80;;;;;;5055787;28;20039;-67
2021/10/25 02:07:28;;;;;;;10.77;8.13;;;5.20;74.70;;;;;;5054942;28;20123;-66
2021/10/25 02:09:54;;;;;;;10.93;8.43;;;5.20;74.80;;;;;;5058505;28;20698;-67
2021/10/25 02:12:20;;;;;;;13.55;9.00;;;5.20;74.70;;;;;;5054115;28;20043;-66
2021/10/25 02:14:46;;;;;;;10.82;8.38;;;5.20;75.40;;;;;;5052891;27;20051;-66
2021/10/25 02:17:12;;;;;;;10.38;8.13;;;5.20;74.30;;;;;;5053673;28;20033;-66
2021/10/25 02:19:39;;;;;;;11.60;8.98;;;5.20;74.40;;;;;;5054751;28;20040;-67
2021/10/25 02:22:05;;;;;;;10.35;8.25;;;5.20;74.50;;;;;;5054774;28;20029;-66
2021/10/25 02:24:31;;;;;;;11.82;8.63;;;5.20;74.60;;;;;;5056110;28;20177;-66
2021/10/25 02:26:57;;;;;;;9.40;7.47;;;5.20;74.60;;;;;;5055689;28;20501;-66
2021/10/25 02:29:23;;;;;;;9.82;8.02;;;5.10;74.20;;;;;;5057559;28;20451;-67
2021/10/25 02:31:49;;;;;;;10.65;8.35;;;5.10;74.20;;;;;;5055616;28;20029;-66
2021/10/25 02:34:16;;;;;;;10.98;8.50;;;5.10;74.30;;;;;;5054483;28;20550;-66
2021/10/25 02:36:41;;;;;;;9.73;8.18;;;5.00;74.40;;;;;;5053687;28;20586;-66
2021/10/25 02:39:07;;;;;;;9.93;7.88;;;5.00;74.50;;;;;;5053516;28;20071;-66
2021/10/25 02:41:33;;;;;;;10.45;8.23;;;5.00;74.60;;;;;;5052969;28;20033;-66
2021/10/25 02:43:59;;;;;;;9.32;8.27;;;5.00;74.60;;;;;;5059379;28;20108;-65
2021/10/25 02:46:25;;;;;;;12.23;8.77;;;5.00;74.40;;;;;;5055376;28;20176;-67
2021/10/25 02:48:51;;;;;;;9.98;8.45;;;5.00;74.10;;;;;;5056308;28;20043;-67
2021/10/25 02:51:16;;;;;;;9.38;7.57;;;5.00;74.00;;;;;;5054871;28;20036;-66
2021/10/25 02:53:42;;;;;;;10.73;8.32;;;5.00;74.20;;;;;;5053910;28;20043;-66
2021/10/25 02:56:08;;;;;;;12.05;8.20;;;4.90;74.30;;;;;;5053510;28;20122;-66
2021/10/25 02:58:34;;;;;;;10.27;8.25;;;4.90;74.40;;;;;;5056062;28;20693;-65
2021/10/25 03:01:00;;;;;;;9.32;8.15;;;4.90;74.30;;;;;;5055609;28;20037;-66
2021/10/25 03:03:26;;;;;;;10.38;7.88;;;4.80;74.30;;;;;;5055324;28;20063;-67
2021/10/25 03:05:52;;;;;;;9.35;7.53;;;4.80;74.30;;;;;;5052185;28;20056;-66
2021/10/25 03:08:18;;;;;;;12.63;8.40;;;4.80;74.40;;;;;;5055277;28;20091;-67
2021/10/25 03:10:44;;;;;;;16.35;8.95;;;4.70;74.60;;;;;;5052365;28;20028;-67
2021/10/25 03:13:11;;;;;;;12.80;8.68;;;4.70;74.80;;;;;;5050999;28;20979;-66
2021/10/25 03:15:37;;;;;;;15.55;8.80;;;4.70;74.80;;;;;;5053931;28;20605;-66
2021/10/25 03:18:03;;;;;;;13.35;8.45;;;4.70;74.50;;;;;;5055333;28;20123;-66
2021/10/25 03:20:29;;;;;;;13.85;8.80;;;4.70;74.30;;;;;;5052241;28;20033;-66
2021/10/25 03:22:55;;;;;;;12.02;8.52;;;4.70;74.50;;;;;;5054210;28;20714;-67
2021/10/25 03:25:20;;;;;;;12.05;8.98;;;4.70;74.60;;;;;;5052271;28;20618;-66
2021/10/25 03:27:47;;;;;;;12.88;10.02;;;4.70;74.60;;;;;;5054242;28;20516;-65
2021/10/25 03:30:14;;;;;;;13.90;8.80;;;4.70;74.60;;;;;;5054565;28;20036;-67
2021/10/25 03:32:40;;;;;;;17.98;10.15;;;4.70;74.10;;;;;;5051959;28;20033;-66
2021/10/25 03:35:07;;;;;;;13.60;9.40;;;4.70;74.10;;;;;;5055834;28;20033;-66
2021/10/25 03:37:35;;;;;;;13.60;9.70;;;4.70;74.10;;;;;;5050831;28;20531;-66
2021/10/25 03:40:01;;;;;;;13.77;9.75;;;4.70;73.80;;;;;;5051035;28;20055;-66
2021/10/25 03:42:35;;;;;;;14.25;9.35;;;4.60;73.50;;;;;;5053172;28;20052;-66
2021/10/25 03:47:47;;;;;;;14.70;9.77;;;4.60;74.00;;;;;;5051949;28;20037;-67
2021/10/25 03:50:21;;;;;;;14.95;8.73;;;4.60;74.20;;;;;;5051481;28;20048;-67
2021/10/25 03:55:31;;;;;;;12.55;9.25;;;4.60;74.10;;;;;;5051604;28;20041;-66
2021/10/25 04:27:52;;;;;;;11.93;8.43;;;4.30;74.40;;;;;;5026860;28;20790;-66
2021/10/25 04:30:19;;;;;;;15.00;9.43;;;4.20;74.00;;;;;;5054104;28;20037;-66
2021/10/25 04:32:45;;;;;;;16.35;10.18;;;4.20;74.30;;;;;;5054663;28;20044;-67
2021/10/25 04:35:11;;;;;;;15.20;10.02;;;4.20;74.60;;;;;;5050902;28;20115;-67
2021/10/25 04:37:37;;;;;;;19.85;12.30;;;4.20;74.60;;;;;;5054472;28;20029;-67
2021/10/25 04:40:04;;;;;;;18.73;11.80;;;4.20;74.60;;;;;;5054465;28;20910;-66
2021/10/25 04:42:31;;;;;;;36.15;17.83;;;4.20;74.50;;;;;;5053892;28;20020;-67
2021/10/25 04:44:57;;;;;;;24.92;14.75;;;4.10;74.50;;;;;;5054389;28;20036;-67
2021/10/25 04:47:23;;;;;;;27.23;14.32;;;4.10;74.70;;;;;;5057407;28;20112;-67
2021/10/25 04:49:48;;;;;;;28.80;17.98;;;4.10;74.90;;;;;;5055373;28;20547;-67
2021/10/25 04:52:14;;;;;;;23.48;15.50;;;4.10;75.10;;;;;;5053391;28;20054;-66
2021/10/25 04:54:40;;;;;;;22.95;14.40;;;4.10;75.00;;;;;;5054960;28;20036;-66
2021/10/25 04:57:06;;;;;;;23.77;13.02;;;4.20;74.90;;;;;;5052632;28;20025;-66
2021/10/25 04:59:32;;;;;;;22.58;13.20;;;4.20;75.00;;;;;;5054820;28;20390;-66
2021/10/25 05:01:58;;;;;;;25.55;12.15;;;4.10;75.10;;;;;;5056583;28;20446;-67
2021/10/25 05:04:23;;;;;;;32.53;12.07;;;4.20;75.30;;;;;;5053675;28;20427;-68
2021/10/25 05:06:49;;;;;;;22.42;11.52;;;4.20;75.20;;;;;;5056842;28;20115;-67
2021/10/25 05:09:16;;;;;;;25.80;12.35;;;4.20;75.10;;;;;;5053824;28;20045;-66
2021/10/25 05:11:41;;;;;;;20.60;11.77;;;4.20;75.00;;;;;;5053679;28;20557;-66
2021/10/25 05:14:08;;;;;;;22.17;11.30;;;4.20;74.80;;;;;;5054038;28;20041;-67
2021/10/25 05:16:34;;;;;;;22.08;11.82;;;4.20;75.00;;;;;;5055334;28;20024;-67
2021/10/25 05:19:00;;;;;;;20.00;12.05;;;4.20;75.20;;;;;;5055896;28;20033;-66
2021/10/25 05:21:26;;;;;;;22.73;12.73;;;4.20;75.20;;;;;;5070457;28;20734;-67
2021/10/25 05:23:51;;;;;;;19.90;12.40;;;4.20;75.00;;;;;;5055221;28;20311;-66
2021/10/25 05:26:17;;;;;;;20.38;11.95;;;4.10;74.90;;;;;;5056822;28;20029;-67
2021/10/25 05:28:43;;;;;;;21.02;10.88;;;4.10;75.00;;;;;;5054819;28;20522;-66
2021/10/25 05:31:12;;;;;;;17.77;11.48;;;4.10;75.20;;;;;;5060855;28;20055;-67
2021/10/25 05:33:41;;;;;;;20.10;12.40;;;4.10;75.40;;;;;;5056904;28;20649;-66
2021/10/25 05:36:08;;;;;;;18.67;10.77;;;4.10;75.50;;;;;;5058259;28;20072;-67
2021/10/25 05:38:36;;;;;;;14.80;10.57;;;4.00;75.50;;;;;;5057202;28;20033;-66
2021/10/25 05:41:02;;;;;;;15.55;10.43;;;4.00;75.80;;;;;;5059073;28;20033;-66
2021/10/25 05:43:28;;;;;;;16.90;11.13;;;4.00;75.90;;;;;;5057267;28;20499;-64
2021/10/25 05:45:54;;;;;;;21.15;12.73;;;4.00;76.00;;;;;;5059796;28;20043;-67
2021/10/25 05:48:20;;;;;;;26.15;12.82;;;4.10;76.00;;;;;;5060963;28;20036;-67
2021/10/25 05:50:46;;;;;;;18.15;11.63;;;4.10;75.70;;;;;;5058930;28;20036;-67
2021/10/25 05:53:12;;;;;;;20.15;11.52;;;4.10;75.70;;;;;;5059365;28;20106;-66
2021/10/25 05:55:39;;;;;;;18.48;11.38;;;4.10;75.90;;;;;;5060341;28;20032;-66
2021/10/25 05:58:10;;;;;;;35.30;14.43;;;4.10;76.00;;;;;;5059760;28;20078;-67
2021/10/25 06:00:39;;;;;;;35.90;16.17;;;4.10;76.00;;;;;;5059754;28;20037;-66
2021/10/25 06:03:05;;;;;;;42.05;18.73;;;4.10;76.00;;;;;;5059334;28;20403;-67
2021/10/25 06:05:31;;;;;;;44.97;18.27;;;4.20;75.90;;;;;;5059715;28;20033;-66
2021/10/25 06:07:57;;;;;;;31.00;16.83;;;4.20;75.60;;;;;;5059100;28;20557;-66
2021/10/25 06:10:30;;;;;;;37.28;17.95;;;4.20;75.60;;;;;;5059078;28;20040;-68
2021/10/25 06:13:00;;;;;;;32.60;16.90;;;4.10;75.70;;;;;;5058966;28;20037;-67
2021/10/25 06:15:30;;;;;;;35.83;16.98;;;4.20;75.90;;;;;;5058737;28;20029;-66
2021/10/25 06:17:56;;;;;;;29.33;16.67;;;4.20;75.90;;;;;;5059302;28;20117;-66
2021/10/25 06:20:28;;;;;;;35.25;15.40;;;4.20;75.90;;;;;;5058588;28;20492;-69
2021/10/25 06:22:55;;;;;;;29.38;15.60;;;4.20;76.20;;;;;;5059497;28;20464;-67
2021/10/25 06:25:23;;;;;;;27.52;15.32;;;4.20;76.30;;;;;;5057427;28;20032;-66
2021/10/25 06:27:49;;;;;;;35.28;15.43;;;4.20;76.30;;;;;;5059428;28;20033;-67
2021/10/25 06:30:16;;;;;;;31.70;16.42;;;4.30;76.30;;;;;;5058583;28;20045;-66
2021/10/25 06:32:42;;;;;;;41.15;17.35;;;4.20;76.20;;;;;;5058276;28;20037;-67
2021/10/25 06:35:10;;;;;;;32.40;16.20;;;4.30;76.10;;;;;;5055845;28;20032;-67
2021/10/25 06:37:49;;;;;;;26.58;15.57;;;4.30;76.00;;;;;;5057468;28;20492;-66
2021/10/25 06:40:18;;;;;;;34.85;20.17;;;4.30;76.20;;;;;;5057460;28;20033;-66
2021/10/25 06:42:44;;;;;;;43.97;25.88;;;4.20;76.40;;;;;;5057021;28;20032;-67
2021/10/25 06:45:14;;;;;;;47.75;25.83;;;4.30;76.60;;;;;;5058317;28;20459;-66
2021/10/25 06:47:40;;;;;;;42.95;21.65;;;4.30;76.80;;;;;;5060056;28;20032;-66
2021/10/25 06:50:05;;;;;;;38.25;20.40;;;4.30;76.90;;;;;;5059166;28;20104;-67
2021/10/25 06:52:31;;;;;;;48.20;20.48;;;4.30;77.00;;;;;;5056815;28;20086;-66
2021/10/25 06:54:57;;;;;;;42.67;20.35;;;4.40;77.10;;;;;;5058022;28;20033;-66
2021/10/25 06:57:23;;;;;;;46.80;19.70;;;4.40;77.10;;;;;;5059085;28;20119;-67
2021/10/25 06:59:49;;;;;;;39.40;19.33;;;4.40;77.10;;;;;;5058523;28;20024;-67
2021/10/25 07:02:15;;;;;;;42.38;19.10;;;4.50;77.10;;;;;;5058318;28;20059;-66
2021/10/25 07:04:40;;;;;;;35.33;19.52;;;4.50;77.00;;;;;;5055613;28;20029;-66
2021/10/25 07:07:06;;;;;;;44.17;27.52;;;4.50;77.10;;;;;;5058090;28;20119;-66
2021/10/25 07:09:32;;;;;;;42.38;21.23;;;4.60;77.10;;;;;;5055852;28;20399;-67
2021/10/25 07:11:58;;;;;;;39.45;19.10;;;4.60;77.10;;;;;;5060264;28;20044;-67
2021/10/25 07:14:28;;;;;;;35.70;18.65;;;4.60;77.10;;;;;;5057892;28;20027;-67
2021/10/25 07:19:46;;;;;;;26.85;15.63;;;4.70;76.90;;;;;;5057618;28;20032;-66
2021/10/25 08:13:33;;;;;;;41.05;17.23;;;5.30;79.00;;;;;;5057843;28;20060;-62
2021/10/25 08:16:08;;;;;;;38.10;17.08;;;5.30;79.00;;;;;;5056444;28;20029;-65
2021/10/25 08:21:13;;;;;;;34.25;15.73;;;5.30;79.00;;;;;;5058260;28;20033;-66
2021/10/25 08:23:39;;;;;;;28.05;15.57;;;5.40;79.20;;;;;;5056839;28;20531;-66
2021/10/25 08:26:05;;;;;;;32.53;16.42;;;5.40;79.30;;;;;;5056900;28;20072;-65
2021/10/25 08:28:31;;;;;;;31.02;17.75;;;5.40;79.40;;;;;;5056728;28;20083;-66
2021/10/25 08:30:58;;;;;;;42.05;21.05;;;5.50;79.70;;;;;;5057376;28;20098;-66
2021/10/25 08:36:15;;;;;;;48.78;23.83;;;5.60;79.70;;;;;;5057578;28;20045;-65
2021/10/25 08:41:29;;;;;;;56.92;32.92;;;5.70;79.60;;;;;;5057419;28;20087;-66
2021/10/25 08:43:55;;;;;;;61.88;32.90;;;5.70;79.50;;;;;;5056723;28;20029;-66
2021/10/25 08:46:24;;;;;;;51.25;25.05;;;5.80;79.40;;;;;;5054984;28;20491;-66
2021/10/25 08:48:49;;;;;;;40.70;23.15;;;5.80;79.50;;;;;;5056027;28;20041;-65
2021/10/25 08:51:18;;;;;;;39.50;21.48;;;5.90;79.60;;;;;;5057214;28;20050;-66
2021/10/25 08:53:44;;;;;;;34.45;20.27;;;5.90;80.50;;;;;;5054151;28;20036;-67
2021/10/25 08:56:17;;;;;;;38.65;22.73;;;6.00;79.90;;;;;;5057341;28;20127;-66
2021/10/25 08:58:49;;;;;;;32.35;19.13;;;6.10;80.00;;;;;;5055257;28;20498;-66
2021/10/25 09:01:29;;;;;;;28.52;17.85;;;6.10;80.00;;;;;;5056302;28;20045;-66
2021/10/25 09:04:11;;;;;;;25.20;16.05;;;6.20;80.60;;;;;;5060326;28;20033;-66
2021/10/25 09:06:47;;;;;;;26.55;14.43;;;6.30;80.70;;;;;;5056585;28;20037;-66
2021/10/25 09:09:15;;;;;;;17.85;12.25;;;6.30;80.90;;;;;;5060505;28;20161;-66
2021/10/25 09:12:04;;;;;;;16.27;12.05;;;6.40;80.40;;;;;;5056884;28;20037;-66
2021/10/25 09:14:31;;;;;;;16.52;11.48;;;6.50;81.20;;;;;;5059142;28;20086;-66
2021/10/25 09:16:59;;;;;;;14.88;11.18;;;6.50;80.60;;;;;;5060600;28;20036;-66
2021/10/25 09:19:28;;;;;;;14.25;10.35;;;6.60;80.70;;;;;;5059307;28;20029;-66
2021/10/25 09:22:07;;;;;;;12.88;10.63;;;6.70;81.00;;;;;;5058179;28;20053;-66
2021/10/25 09:24:33;;;;;;;14.27;10.80;;;6.80;81.50;;;;;;5058142;28;20033;-66
2021/10/25 09:27:04;;;;;;;12.82;10.05;;;6.80;81.00;;;;;;5060515;28;20052;-65
2021/10/25 09:29:33;;;;;;;16.10;10.90;;;6.90;81.00;;;;;;5059766;28;20033;-66
2021/10/25 09:32:07;;;;;;;16.58;11.05;;;6.90;81.00;;;;;;5061247;28;20024;-66
2021/10/25 09:34:56;;;;;;;14.97;11.63;;;7.00;81.20;;;;;;5064595;28;20037;-66
2021/10/25 09:37:28;;;;;;;15.68;10.98;;;7.10;81.30;;;;;;5058587;28;20052;-67
2021/10/25 09:40:17;;;;;;;16.92;11.07;;;7.10;81.20;;;;;;5057995;28;20024;-66
2021/10/25 09:46:34;;;;;;;14.82;11.57;;;7.30;81.50;;;;;;5066939;28;20542;-67
2021/10/25 09:51:16;;;;;;;15.40;11.77;;;7.60;82.00;;;;;;5060305;28;20151;-66
2021/10/25 09:53:45;;;;;;;18.60;12.85;;;7.70;82.10;;;;;;5059768;28;20494;-66
2021/10/25 09:56:12;;;;;;;16.73;12.35;;;7.80;82.40;;;;;;5059612;28;20036;-67
2021/10/25 09:58:53;;;;;;;16.05;12.43;;;7.90;82.70;;;;;;5059081;28;20052;-66
2021/10/25 10:01:24;;;;;;;17.40;12.32;;;8.10;82.90;;;;;;5060096;28;20040;-66
2021/10/25 10:03:52;;;;;;;17.33;12.85;;;8.20;82.60;;;;;;5059740;28;20029;-66
2021/10/25 10:06:18;;;;;;;15.43;12.10;;;8.30;82.60;;;;;;5058378;28;20124;-66
2021/10/25 10:08:44;;;;;;;16.60;12.23;;;8.50;82.80;;;;;;5059256;28;20119;-67
2021/10/25 10:11:10;;;;;;;19.02;12.60;;;8.70;82.90;;;;;;5060252;28;20033;-67
2021/10/25 10:13:36;;;;;;;14.43;11.77;;;8.80;82.80;;;;;;5058041;28;20412;-66
2021/10/25 10:16:05;;;;;;;15.80;12.32;;;9.00;82.70;;;;;;5056344;28;20358;-67
2021/10/25 10:18:33;;;;;;;16.60;12.18;;;9.10;82.60;;;;;;5059214;28;20029;-67
2021/10/25 10:21:02;;;;;;;15.45;12.02;;;9.30;82.50;;;;;;5057001;28;20587;-67
2021/10/25 10:23:28;;;;;;;15.57;12.55;;;9.40;82.40;;;;;;5058183;28;20040;-65
2021/10/25 10:25:56;;;;;;;15.70;12.13;;;9.60;82.40;;;;;;5059294;28;20025;-67
2021/10/25 10:28:40;;;;;;;14.90;12.02;;;9.60;82.40;;;;;;5059415;28;20056;-67
2021/10/25 10:31:27;;;;;;;15.43;11.98;;;9.80;83.10;;;;;;5059498;28;20029;-67
2021/10/25 10:33:55;;;;;;;16.02;12.00;;;10.00;82.60;;;;;;5058579;28;20163;-66
2021/10/25 10:36:31;;;;;;;16.58;12.05;;;10.20;82.40;;;;;;5057795;28;20029;-67
2021/10/25 10:39:16;;;;;;;14.43;11.13;;;10.30;82.00;;;;;;5057927;28;20032;-67
2021/10/25 10:41:41;;;;;;;18.95;12.75;;;10.50;82.00;;;;;;5057701;28;20032;-66
2021/10/25 10:44:15;;;;;;;18.13;11.93;;;10.60;81.50;;;;;;5057521;28;20033;-66
2021/10/25 10:46:57;;;;;;;14.95;12.05;;;10.70;81.30;;;;;;5059735;28;20495;-67
2021/10/25 10:49:49;;;;;;;20.85;14.15;;;10.80;81.10;;;;;;5056711;28;20127;-67
2021/10/25 10:52:31;;;;;;;15.73;12.07;;;11.00;81.10;;;;;;5057196;28;20044;-67
2021/10/25 10:55:06;;;;;;;14.98;11.63;;;11.10;80.50;;;;;;5058026;28;20323;-67
2021/10/25 11:00:35;;;;;;;14.98;11.25;;;11.30;80.30;;;;;;5060323;28;20036;-67
2021/10/25 11:03:12;;;;;;;14.38;11.65;;;11.40;80.00;;;;;;5059857;28;20095;-67
2021/10/25 11:05:42;;;;;;;17.75;13.27;;;11.50;79.60;;;;;;5057522;28;20029;-67
2021/10/25 11:08:23;;;;;;;15.15;11.35;;;11.60;79.40;;;;;;5056872;28;20024;-67
2021/10/25 11:11:05;;;;;;;12.90;10.65;;;11.70;79.10;;;;;;5053640;28;20119;-67
2021/10/25 11:13:33;;;;;;;13.45;10.50;;;11.80;78.90;;;;;;5054977;28;20037;-67
2021/10/25 11:16:12;;;;;;;12.27;10.65;;;11.80;78.50;;;;;;5054282;28;20040;-67
2021/10/25 11:18:42;;;;;;;14.20;10.95;;;11.90;78.40;;;;;;5055886;28;20039;-67
2021/10/25 11:21:09;;;;;;;13.55;11.00;;;12.00;78.20;;;;;;5057582;28;20060;-67
2021/10/25 11:23:50;;;;;;;17.35;10.90;;;12.00;78.10;;;;;;5057341;28;20025;-66
2021/10/25 11:26:21;;;;;;;16.48;11.05;;;12.10;78.10;;;;;;5058978;28;20435;-67
2021/10/25 11:29:05;;;;;;;15.20;10.27;;;12.10;78.00;;;;;;5057380;28;20557;-67
2021/10/25 11:31:35;;;;;;;12.25;9.25;;;12.20;77.90;;;;;;5058407;28;20063;-67
2021/10/25 11:34:06;;;;;;;13.80;10.55;;;12.30;77.70;;;;;;5057888;28;20402;-66
2021/10/25 11:36:33;;;;;;;14.00;9.63;;;12.30;77.40;;;;;;5057235;28;20039;-67
2021/10/25 11:39:01;;;;;;;15.10;9.95;;;12.40;77.30;;;;;;5057436;28;20117;-66
2021/10/25 11:41:27;;;;;;;17.42;10.00;;;12.50;77.30;;;;;;5058159;28;20087;-67
2021/10/25 11:43:53;;;;;;;17.80;10.23;;;12.60;78.00;;;;;;5058384;28;20078;-67
2021/10/25 11:46:21;;;;;;;13.38;9.75;;;12.70;77.00;;;;;;5057309;28;20036;-67
2021/10/25 11:48:59;;;;;;;13.30;9.45;;;12.80;76.70;;;;;;5058038;28;20047;-66
2021/10/25 11:51:26;;;;;;;13.93;10.50;;;12.80;76.40;;;;;;5058344;28;20037;-67
2021/10/25 11:53:59;;;;;;;17.27;11.18;;;12.90;76.20;;;;;;5055469;28;20041;-68
2021/10/25 11:56:29;;;;;;;14.35;10.20;;;13.00;75.90;;;;;;5061878;28;20099;-67
2021/10/25 11:58:55;;;;;;;16.50;11.30;;;13.00;76.00;;;;;;5057917;28;20036;-68
2021/10/25 12:01:22;;;;;;;15.65;11.60;;;13.10;75.80;;;;;;5056670;28;20559;-67
2021/10/25 12:03:47;;;;;;;15.60;11.13;;;13.20;75.80;;;;;;5056741;28;20558;-68
2021/10/25 12:06:21;;;;;;;16.00;11.32;;;13.30;75.80;;;;;;5057157;28;20367;-67
2021/10/25 12:09:08;;;;;;;17.30;12.27;;;13.30;75.60;;;;;;5056556;28;20044;-67
2021/10/25 12:14:09;;;;;;;;;;;13.50;75.60;;;;;;5056154;28;20036;-67
2021/10/25 12:16:38;;;;;;;15.77;12.18;;;13.50;75.40;;;;;;5057006;28;19913;-68
2021/10/25 12:19:05;;;;;;;20.35;13.88;;;13.60;75.50;;;;;;5057275;28;20045;-68
2021/10/25 12:21:33;;;;;;;17.60;12.55;;;13.60;76.40;;;;;;5056675;28;20022;-67
2021/10/25 12:24:01;;;;;;;15.35;12.30;;;13.70;75.40;;;;;;5056792;28;20025;-67
2021/10/25 12:26:27;;;;;;;16.92;11.98;;;13.70;75.40;;;;;;5056942;28;20104;-67
2021/10/25 12:28:53;;;;;;;13.70;10.57;;;13.70;76.20;;;;;;5058103;28;20395;-67
2021/10/25 12:31:20;;;;;;;14.30;10.40;;;13.80;75.00;;;;;;5056987;28;20518;-68
2021/10/25 12:33:51;;;;;;;14.35;10.38;;;13.80;74.50;;;;;;5057916;28;20055;-68
2021/10/25 12:36:18;;;;;;;11.73;10.18;;;13.90;74.30;;;;;;5059120;28;20037;-67
2021/10/25 12:38:47;;;;;;;16.17;11.07;;;13.90;74.00;;;;;;5060770;28;21202;-68
2021/10/25 12:41:13;;;;;;;13.18;10.35;;;13.90;73.70;;;;;;5061576;28;20037;-68
2021/10/25 12:43:40;;;;;;;14.65;9.88;;;13.90;73.50;;;;;;5061229;28;20029;-68
2021/10/25 12:46:09;;;;;;;11.88;9.43;;;14.00;73.40;;;;;;5061190;28;20411;-68
2021/10/25 12:48:45;;;;;;;13.93;9.63;;;14.00;73.30;;;;;;5060830;28;20040;-68
2021/10/25 12:51:11;;;;;;;13.30;10.13;;;14.00;73.00;;;;;;5062257;28;20033;-68
2021/10/25 12:53:45;;;;;;;14.20;10.40;;;14.00;73.10;;;;;;5060768;28;20090;-67
2021/10/25 12:56:12;;;;;;;13.77;10.25;;;14.00;73.70;;;;;;5059876;28;20025;-68
2021/10/25 12:58:39;;;;;;;13.00;10.48;;;14.10;73.00;;;;;;5060486;28;20025;-68
2021/10/25 13:01:14;;;;;;;15.90;11.02;;;14.10;73.00;;;;;;5061272;28;20028;-68
2021/10/25 13:03:47;;;;;;;13.63;10.25;;;14.10;72.80;;;;;;5058635;28;20518;-67
2021/10/25 13:06:13;;;;;;;12.57;10.32;;;14.10;72.90;;;;;;5057371;28;20407;-68
2021/10/25 13:08:39;;;;;;;13.70;10.13;;;14.10;72.80;;;;;;5059513;28;21309;-68
2021/10/25 13:11:06;;;;;;;14.70;10.40;;;14.10;72.60;;;;;;5060202;28;20109;-68
2021/10/25 13:13:33;;;;;;;17.65;10.77;;;14.20;72.60;;;;;;5059784;28;20625;-68
2021/10/25 13:15:59;;;;;;;21.23;11.10;;;14.20;72.60;;;;;;5058820;28;20056;-67
2021/10/25 13:18:25;;;;;;;14.82;10.73;;;14.20;72.60;;;;;;5058233;28;20071;-68
2021/10/25 13:20:51;;;;;;;15.43;11.18;;;14.20;72.30;;;;;;5060847;28;20075;-68
2021/10/25 13:23:17;;;;;;;14.52;10.32;;;14.30;72.20;;;;;;5059488;28;20033;-68
2021/10/25 13:25:43;;;;;;;16.67;11.00;;;14.30;72.20;;;;;;5059827;28;20036;-67
2021/10/25 13:28:10;;;;;;;16.23;11.48;;;14.30;72.30;;;;;;5060070;28;20078;-67
2021/10/25 13:30:36;;;;;;;18.20;10.50;;;14.40;72.10;;;;;;5059846;28;20033;-68
2021/10/25 13:33:03;;;;;;;14.07;10.35;;;14.40;72.00;;;;;;5060250;28;20048;-67
2021/10/25 13:35:29;;;;;;;14.85;10.48;;;14.50;72.00;;;;;;5059460;28;20024;-68
2021/10/25 13:37:55;;;;;;;16.55;10.30;;;14.50;71.70;;;;;;5060749;28;20033;-68
2021/10/25 13:40:24;;;;;;;14.43;11.05;;;14.50;71.50;;;;;;5060809;28;20036;-68
2021/10/25 13:42:51;;;;;;;17.23;11.27;;;14.60;71.40;;;;;;5059430;28;20036;-67
2021/10/25 13:45:17;;;;;;;14.60;10.73;;;14.60;71.40;;;;;;5058211;28;20101;-68
2021/10/25 13:47:43;;;;;;;15.65;11.40;;;14.60;71.30;;;;;;5058313;28;20033;-68
2021/10/25 13:50:09;;;;;;;15.73;11.05;;;14.60;71.20;;;;;;5058545;28;20123;-67
2021/10/25 13:52:36;;;;;;;14.90;10.55;;;14.70;71.10;;;;;;5058494;28;20489;-68
2021/10/25 13:55:04;;;;;;;14.40;10.70;;;14.70;71.10;;;;;;5059997;28;20030;-67
2021/10/25 13:57:35;;;;;;;14.75;11.30;;;14.70;71.10;;;;;;5059522;28;20174;-68
2021/10/25 14:00:00;;;;;;;16.45;10.85;;;14.70;71.10;;;;;;5061935;28;20033;-67
2021/10/25 14:02:30;;;;;;;11.88;9.73;;;14.80;71.30;;;;;;5059934;28;20108;-68
2021/10/25 14:04:58;;;;;;;17.98;11.52;;;14.80;70.90;;;;;;5058785;28;20123;-68
2021/10/25 14:07:31;;;;;;;18.42;10.93;;;14.80;70.80;;;;;;5060032;28;20033;-68
2021/10/25 14:10:05;;;;;;;16.80;10.48;;;14.80;70.70;;;;;;5059126;28;20035;-68
2021/10/25 14:12:31;;;;;;;16.90;11.00;;;14.90;70.70;;;;;;5058759;28;20128;-68
2021/10/25 14:15:06;;;;;;;15.23;11.23;;;14.90;70.70;;;;;;5058881;28;20316;-68
2021/10/25 14:17:32;;;;;;;44.55;34.15;;;14.90;70.60;;;;;;5057894;28;20032;-68
2021/10/25 14:19:58;;;;;;;21.58;16.35;;;14.90;70.40;;;;;;5059675;28;20025;-68
2021/10/25 14:22:24;;;;;;;17.35;11.80;;;14.90;70.40;;;;;;5058446;28;20036;-67
2021/10/25 14:24:50;;;;;;;17.02;12.55;;;15.00;70.40;;;;;;5057942;28;20408;-68
2021/10/25 14:27:16;;;;;;;17.65;11.48;;;14.90;70.30;;;;;;5058275;28;20045;-67
2021/10/25 14:29:42;;;;;;;14.90;10.50;;;15.00;70.40;;;;;;5056622;28;20033;-67
2021/10/25 14:32:09;;;;;;;13.75;10.25;;;14.90;70.40;;;;;;5059035;28;20068;-67